X  Close Metar Aviation Weather Data     LDPL Pula Airport
Temperature
81°F Temperature
48°F Dewpoint
32% Humidity



Wind
6 MPH
10 KM/H
3 M/S
5 KTS



120°
ESE
Current Conditions

Partly Cloudy Partly Cloudy
Pressure 1010.92 (hPa) - 29.85 (inHg)
Visibility 6.2 (mile) - 10 (km)
Airport
Airport-code LDPL

Location: Pula Airport
Distance: 39 (mi)

Metar:
LDPL 131200Z 12005KT 060V170 9999 FEW055 27/09 Q1011 NOSIG

Time: 13-08-2022 14:00 CEST